Current | Forecast
Updated: 3:00 AM +12 on February 26, 2018
Observed at Petropavlovsk Kamchatskij, Russia
Temperature 10°F
Windchill 0°F
Humidity 73%
Dew Point 3°F
Wind North at 7 mph
Pressure 29.83 in (Steady)
Conditions Clear
Visibility 6.2 miles
UV N/A
Clouds
Yesterday's Maximum 25°F
Yesterday's Minimum 7°F approx.
Yesterday's Heating Degree Days 49 approx.
Sunrise8:23 PM UTC
Sunset6:55 AM UTC
Moon Rise1:10 AM UTC
Moon Set5:36 PM UTC
Moon PhaseMoon Phase
Waxing Gibbous
Raw METARMETAR UHPP 251500Z 01003MPS 9999 NSC M12/M16 Q1010 R34L/CLRD70 NOSIG RMK QFE754/1005


Monday
. High: 39° F.
Tuesday
. High: 42° F.
Wednesday
. High: 41° F.
Thursday
. High: 41° F.
Friday
. High: 39° F.
Saturday
. High: 42° F.
Sunday
. High: 42° F.
Monday
. High: 39° F.

Units: English | Metric

Find the Weather for any City, State or Zipcode, or Country:

U.S. State List | Severe Weather | Tropical Storms | Ski Conditions
United States | Canada | Central America | South America | Asia | Europe | Australia | Africa | Islands

Weather Underground

© Copyright 2018
The Weather Company, LLC